sensor_id;sensor_type;location;lat;lon;timestamp;pressure;altitude;pressure_sealevel;temperature;humidity
19777;BME280;10047;42.490;26.012;2023-04-28T00:01:15;100197.53;;;11.56;100.00
19777;BME280;10047;42.490;26.012;2023-04-28T00:03:41;100139.66;;;11.03;100.00
19777;BME280;10047;42.490;26.012;2023-04-28T00:06:06;100146.88;;;10.87;100.00
19777;BME280;10047;42.490;26.012;2023-04-28T00:08:32;100201.38;;;11.40;100.00
19777;BME280;10047;42.490;26.012;2023-04-28T00:10:57;100212.09;;;11.51;100.00
19777;BME280;10047;42.490;26.012;2023-04-28T00:13:23;100206.81;;;11.59;100.00
19777;BME280;10047;42.490;26.012;2023-04-28T00:15:49;100210.81;;;11.37;100.00
19777;BME280;10047;42.490;26.012;2023-04-28T00:18:17;100220.00;;;11.42;100.00
19777;BME280;10047;42.490;26.012;2023-04-28T00:20:43;100250.25;;;11.53;100.00
19777;BME280;10047;42.490;26.012;2023-04-28T00:23:08;100245.97;;;11.55;100.00
19777;BME280;10047;42.490;26.012;2023-04-28T00:25:33;100188.28;;;11.23;100.00
19777;BME280;10047;42.490;26.012;2023-04-28T00:27:59;100191.13;;;11.12;100.00
19777;BME280;10047;42.490;26.012;2023-04-28T00:30:25;100252.94;;;11.48;100.00
19777;BME280;10047;42.490;26.012;2023-04-28T00:32:51;100268.63;;;11.31;100.00
19777;BME280;10047;42.490;26.012;2023-04-28T00:35:16;100203.63;;;10.88;100.00
19777;BME280;10047;42.490;26.012;2023-04-28T00:37:42;100249.00;;;11.37;100.00
19777;BME280;10047;42.490;26.012;2023-04-28T00:40:07;100242.59;;;11.22;100.00
19777;BME280;10047;42.490;26.012;2023-04-28T00:42:33;100207.78;;;10.92;100.00
19777;BME280;10047;42.490;26.012;2023-04-28T00:44:58;100197.69;;;10.89;100.00
19777;BME280;10047;42.490;26.012;2023-04-28T00:47:32;100200.69;;;10.71;100.00
19777;BME280;10047;42.490;26.012;2023-04-28T00:49:59;100232.88;;;11.36;100.00
19777;BME280;10047;42.490;26.012;2023-04-28T00:52:26;100243.44;;;11.22;100.00
19777;BME280;10047;42.490;26.012;2023-04-28T00:54:52;100240.03;;;10.90;100.00
19777;BME280;10047;42.490;26.012;2023-04-28T00:57:18;100245.28;;;10.84;100.00
19777;BME280;10047;42.490;26.012;2023-04-28T00:59:43;100236.16;;;10.77;100.00
19777;BME280;10047;42.490;26.012;2023-04-28T01:02:09;100241.25;;;11.09;100.00
19777;BME280;10047;42.490;26.012;2023-04-28T01:04:42;100216.59;;;10.79;100.00
19777;BME280;10047;42.490;26.012;2023-04-28T01:07:08;100191.91;;;10.48;100.00
19777;BME280;10047;42.490;26.012;2023-04-28T01:09:33;100256.06;;;10.58;100.00
19777;BME280;10047;42.490;26.012;2023-04-28T01:11:58;100186.03;;;10.46;100.00
19777;BME280;10047;42.490;26.012;2023-04-28T01:14:24;100243.69;;;10.80;100.00
19777;BME280;10047;42.490;26.012;2023-04-28T01:16:50;100228.56;;;10.74;100.00
19777;BME280;10047;42.490;26.012;2023-04-28T01:19:22;100252.44;;;10.68;100.00
19777;BME280;10047;42.490;26.012;2023-04-28T01:21:50;100173.38;;;10.45;100.00
19777;BME280;10047;42.490;26.012;2023-04-28T01:24:21;100248.91;;;10.74;100.00
19777;BME280;10047;42.490;26.012;2023-04-28T01:26:46;100192.16;;;10.39;100.00
19777;BME280;10047;42.490;26.012;2023-04-28T01:29:12;100246.72;;;10.94;100.00
19777;BME280;10047;42.490;26.012;2023-04-28T01:31:37;100198.03;;;10.41;100.00
19777;BME280;10047;42.490;26.012;2023-04-28T01:34:03;100251.59;;;10.69;100.00
19777;BME280;10047;42.490;26.012;2023-04-28T01:36:28;100185.19;;;10.09;100.00
19777;BME280;10047;42.490;26.012;2023-04-28T01:38:54;100209.31;;;10.30;100.00
19777;BME280;10047;42.490;26.012;2023-04-28T01:41:20;100255.31;;;10.55;100.00
19777;BME280;10047;42.490;26.012;2023-04-28T01:43:46;100240.63;;;10.66;100.00
19777;BME280;10047;42.490;26.012;2023-04-28T01:46:12;100206.84;;;10.27;100.00
19777;BME280;10047;42.490;26.012;2023-04-28T01:48:37;100193.84;;;10.01;100.00
19777;BME280;10047;42.490;26.012;2023-04-28T01:51:02;100243.13;;;10.33;100.00
19777;BME280;10047;42.490;26.012;2023-04-28T01:53:28;100261.28;;;10.54;100.00
19777;BME280;10047;42.490;26.012;2023-04-28T01:55:53;100248.88;;;10.41;100.00
19777;BME280;10047;42.490;26.012;2023-04-28T01:58:19;100271.00;;;10.36;100.00
19777;BME280;10047;42.490;26.012;2023-04-28T02:00:45;100238.44;;;10.15;100.00
19777;BME280;10047;42.490;26.012;2023-04-28T02:03:10;100217.91;;;9.86;100.00
19777;BME280;10047;42.490;26.012;2023-04-28T02:05:36;100268.84;;;10.18;100.00
19777;BME280;10047;42.490;26.012;2023-04-28T02:08:01;100205.72;;;10.00;100.00
19777;BME280;10047;42.490;26.012;2023-04-28T02:10:27;100246.91;;;10.14;100.00
19777;BME280;10047;42.490;26.012;2023-04-28T02:12:52;100189.22;;;9.81;100.00
19777;BME280;10047;42.490;26.012;2023-04-28T02:15:18;100246.50;;;9.94;100.00
19777;BME280;10047;42.490;26.012;2023-04-28T02:17:43;100222.56;;;10.04;100.00
19777;BME280;10047;42.490;26.012;2023-04-28T02:20:09;100175.81;;;9.75;100.00
19777;BME280;10047;42.490;26.012;2023-04-28T02:22:35;100245.66;;;9.94;100.00
19777;BME280;10047;42.490;26.012;2023-04-28T02:25:00;100242.28;;;9.93;100.00
19777;BME280;10047;42.490;26.012;2023-04-28T02:27:26;100227.63;;;10.06;100.00
19777;BME280;10047;42.490;26.012;2023-04-28T02:29:51;100198.53;;;9.81;100.00
19777;BME280;10047;42.490;26.012;2023-04-28T02:32:17;100195.84;;;9.87;100.00
19777;BME280;10047;42.490;26.012;2023-04-28T02:34:42;100160.88;;;9.99;100.00
19777;BME280;10047;42.490;26.012;2023-04-28T02:37:08;100109.63;;;9.84;100.00
19777;BME280;10047;42.490;26.012;2023-04-28T02:39:33;100057.53;;;9.29;100.00
19777;BME280;10047;42.490;26.012;2023-04-28T02:41:59;100068.47;;;9.33;100.00
19777;BME280;10047;42.490;26.012;2023-04-28T02:44:24;100045.34;;;9.07;100.00
19777;BME280;10047;42.490;26.012;2023-04-28T02:46:50;100054.38;;;9.20;100.00
19777;BME280;10047;42.490;26.012;2023-04-28T02:49:15;100075.00;;;9.43;100.00
19777;BME280;10047;42.490;26.012;2023-04-28T02:51:41;100023.09;;;8.80;100.00
19777;BME280;10047;42.490;26.012;2023-04-28T02:54:06;100093.47;;;9.10;100.00
19777;BME280;10047;42.490;26.012;2023-04-28T02:56:32;100053.88;;;8.61;100.00
19777;BME280;10047;42.490;26.012;2023-04-28T02:58:58;100044.41;;;8.69;100.00
19777;BME280;10047;42.490;26.012;2023-04-28T03:01:23;100060.53;;;8.67;100.00
19777;BME280;10047;42.490;26.012;2023-04-28T03:03:49;100085.41;;;8.90;100.00
19777;BME280;10047;42.490;26.012;2023-04-28T03:06:14;100133.88;;;9.19;100.00
19777;BME280;10047;42.490;26.012;2023-04-28T03:08:40;100097.47;;;8.79;100.00
19777;BME280;10047;42.490;26.012;2023-04-28T03:11:05;100096.34;;;8.92;100.00
19777;BME280;10047;42.490;26.012;2023-04-28T03:13:31;100057.44;;;8.50;100.00
19777;BME280;10047;42.490;26.012;2023-04-28T03:15:56;100158.00;;;8.94;100.00
19777;BME280;10047;42.490;26.012;2023-04-28T03:18:42;100192.63;;;8.96;100.00
19777;BME280;10047;42.490;26.012;2023-04-28T03:21:07;100153.78;;;8.94;100.00
19777;BME280;10047;42.490;26.012;2023-04-28T03:23:33;100182.44;;;8.99;100.00
19777;BME280;10047;42.490;26.012;2023-04-28T03:25:58;100221.38;;;9.39;100.00
19777;BME280;10047;42.490;26.012;2023-04-28T03:28:24;100247.88;;;9.25;100.00
19777;BME280;10047;42.490;26.012;2023-04-28T03:30:49;100250.81;;;9.48;100.00
19777;BME280;10047;42.490;26.012;2023-04-28T03:33:14;100242.00;;;9.23;100.00
19777;BME280;10047;42.490;26.012;2023-04-28T03:35:40;100234.09;;;9.38;100.00
19777;BME280;10047;42.490;26.012;2023-04-28T03:38:05;100207.19;;;10.12;100.00
19777;BME280;10047;42.490;26.012;2023-04-28T03:40:31;100219.09;;;10.10;100.00
19777;BME280;10047;42.490;26.012;2023-04-28T03:42:57;100314.75;;;9.67;100.00
19777;BME280;10047;42.490;26.012;2023-04-28T03:45:22;100311.19;;;9.75;100.00
19777;BME280;10047;42.490;26.012;2023-04-28T03:47:48;100312.72;;;9.84;100.00
19777;BME280;10047;42.490;26.012;2023-04-28T03:50:13;100326.50;;;9.72;100.00
19777;BME280;10047;42.490;26.012;2023-04-28T03:52:38;100283.41;;;9.23;100.00
19777;BME280;10047;42.490;26.012;2023-04-28T03:55:04;100335.75;;;9.75;100.00
19777;BME280;10047;42.490;26.012;2023-04-28T03:57:29;100322.75;;;9.45;100.00
19777;BME280;10047;42.490;26.012;2023-04-28T03:59:55;100294.44;;;9.67;100.00
19777;BME280;10047;42.490;26.012;2023-04-28T04:02:20;100295.63;;;9.49;100.00
19777;BME280;10047;42.490;26.012;2023-04-28T04:04:46;100357.94;;;9.65;100.00
19777;BME280;10047;42.490;26.012;2023-04-28T04:07:12;100358.03;;;9.59;100.00
19777;BME280;10047;42.490;26.012;2023-04-28T04:09:37;100349.69;;;9.54;100.00
19777;BME280;10047;42.490;26.012;2023-04-28T04:12:03;100298.41;;;9.35;100.00
19777;BME280;10047;42.490;26.012;2023-04-28T04:14:28;100309.44;;;9.34;100.00
19777;BME280;10047;42.490;26.012;2023-04-28T04:16:54;100367.06;;;9.75;100.00
19777;BME280;10047;42.490;26.012;2023-04-28T04:19:19;100327.53;;;9.62;100.00
19777;BME280;10047;42.490;26.012;2023-04-28T04:21:45;100378.94;;;9.73;100.00
19777;BME280;10047;42.490;26.012;2023-04-28T04:24:10;100365.28;;;9.79;100.00
19777;BME280;10047;42.490;26.012;2023-04-28T04:26:36;100381.38;;;9.79;100.00
19777;BME280;10047;42.490;26.012;2023-04-28T04:29:01;100363.88;;;10.08;100.00
19777;BME280;10047;42.490;26.012;2023-04-28T04:31:26;100392.81;;;10.01;100.00
19777;BME280;10047;42.490;26.012;2023-04-28T04:33:52;100382.44;;;10.13;100.00
19777;BME280;10047;42.490;26.012;2023-04-28T04:36:17;100356.59;;;9.92;100.00
19777;BME280;10047;42.490;26.012;2023-04-28T04:38:43;100379.00;;;9.69;100.00
19777;BME280;10047;42.490;26.012;2023-04-28T04:41:08;100400.31;;;10.07;100.00
19777;BME280;10047;42.490;26.012;2023-04-28T04:43:33;100390.59;;;9.83;100.00
19777;BME280;10047;42.490;26.012;2023-04-28T04:45:59;100357.78;;;9.74;100.00
19777;BME280;10047;42.490;26.012;2023-04-28T04:48:24;100337.84;;;9.97;100.00
19777;BME280;10047;42.490;26.012;2023-04-28T04:50:50;100389.06;;;10.98;100.00
19777;BME280;10047;42.490;26.012;2023-04-28T04:53:15;100352.09;;;10.04;100.00
19777;BME280;10047;42.490;26.012;2023-04-28T04:55:41;100415.75;;;10.41;100.00
19777;BME280;10047;42.490;26.012;2023-04-28T04:58:06;100421.19;;;10.23;100.00
19777;BME280;10047;42.490;26.012;2023-04-28T05:00:31;100412.03;;;10.14;100.00
19777;BME280;10047;42.490;26.012;2023-04-28T05:02:57;100324.91;;;10.09;100.00
19777;BME280;10047;42.490;26.012;2023-04-28T05:05:23;100417.13;;;10.57;100.00
19777;BME280;10047;42.490;26.012;2023-04-28T05:07:49;100385.59;;;10.24;100.00
19777;BME280;10047;42.490;26.012;2023-04-28T05:10:14;100375.03;;;10.01;100.00
19777;BME280;10047;42.490;26.012;2023-04-28T05:12:40;100430.44;;;10.27;100.00
19777;BME280;10047;42.490;26.012;2023-04-28T05:15:05;100435.47;;;10.70;100.00
19777;BME280;10047;42.490;26.012;2023-04-28T05:17:32;100436.66;;;10.95;100.00
19777;BME280;10047;42.490;26.012;2023-04-28T05:19:57;100433.88;;;11.04;100.00
19777;BME280;10047;42.490;26.012;2023-04-28T05:22:23;100444.47;;;10.86;100.00
19777;BME280;10047;42.490;26.012;2023-04-28T05:24:50;100404.38;;;10.59;100.00
19777;BME280;10047;42.490;26.012;2023-04-28T05:27:15;100457.88;;;11.29;100.00
19777;BME280;10047;42.490;26.012;2023-04-28T05:29:40;100408.66;;;10.95;100.00
19777;BME280;10047;42.490;26.012;2023-04-28T05:32:06;100453.69;;;10.90;100.00
19777;BME280;10047;42.490;26.012;2023-04-28T05:34:31;100453.03;;;11.20;100.00
19777;BME280;10047;42.490;26.012;2023-04-28T05:36:57;100467.72;;;11.07;100.00
19777;BME280;10047;42.490;26.012;2023-04-28T05:39:22;100463.16;;;11.23;100.00
19777;BME280;10047;42.490;26.012;2023-04-28T05:41:48;100422.72;;;11.11;100.00
19777;BME280;10047;42.490;26.012;2023-04-28T05:44:13;100474.63;;;11.39;100.00
19777;BME280;10047;42.490;26.012;2023-04-28T05:46:38;100487.97;;;11.12;100.00
19777;BME280;10047;42.490;26.012;2023-04-28T05:49:04;100485.56;;;11.79;100.00
19777;BME280;10047;42.490;26.012;2023-04-28T05:51:29;100491.59;;;12.09;100.00
19777;BME280;10047;42.490;26.012;2023-04-28T05:53:55;100510.78;;;11.53;100.00
19777;BME280;10047;42.490;26.012;2023-04-28T05:56:20;100545.22;;;11.32;100.00
19777;BME280;10047;42.490;26.012;2023-04-28T05:58:46;100512.66;;;11.47;100.00
19777;BME280;10047;42.490;26.012;2023-04-28T06:01:13;100580.84;;;11.32;100.00
19777;BME280;10047;42.490;26.012;2023-04-28T06:03:39;100621.25;;;11.06;100.00
19777;BME280;10047;42.490;26.012;2023-04-28T06:06:06;100620.56;;;11.40;100.00
19777;BME280;10047;42.490;26.012;2023-04-28T06:08:32;100627.63;;;11.27;100.00
19777;BME280;10047;42.490;26.012;2023-04-28T06:10:57;100671.81;;;11.66;100.00
19777;BME280;10047;42.490;26.012;2023-04-28T06:13:23;100644.50;;;11.31;100.00
19777;BME280;10047;42.490;26.012;2023-04-28T06:15:48;100673.06;;;11.02;100.00
19777;BME280;10047;42.490;26.012;2023-04-28T06:18:14;100690.91;;;11.01;100.00
19777;BME280;10047;42.490;26.012;2023-04-28T06:20:40;100694.22;;;11.06;100.00
19777;BME280;10047;42.490;26.012;2023-04-28T06:23:06;100752.00;;;11.45;100.00
19777;BME280;10047;42.490;26.012;2023-04-28T06:25:33;100733.97;;;11.13;100.00
19777;BME280;10047;42.490;26.012;2023-04-28T06:27:59;100785.38;;;11.30;100.00
19777;BME280;10047;42.490;26.012;2023-04-28T06:30:24;100745.88;;;11.11;100.00
19777;BME280;10047;42.490;26.012;2023-04-28T06:32:49;100832.84;;;11.34;100.00
19777;BME280;10047;42.490;26.012;2023-04-28T06:35:15;100791.91;;;11.45;100.00
19777;BME280;10047;42.490;26.012;2023-04-28T06:37:53;100785.19;;;11.86;100.00
19777;BME280;10047;42.490;26.012;2023-04-28T06:40:19;100859.63;;;12.02;100.00
19777;BME280;10047;42.490;26.012;2023-04-28T06:42:44;100850.75;;;12.58;100.00
19777;BME280;10047;42.490;26.012;2023-04-28T06:45:10;100896.56;;;12.23;100.00
19777;BME280;10047;42.490;26.012;2023-04-28T06:47:35;100927.50;;;12.06;100.00
19777;BME280;10047;42.490;26.012;2023-04-28T06:50:01;100973.94;;;11.73;100.00
19777;BME280;10047;42.490;26.012;2023-04-28T06:52:27;100951.66;;;11.85;100.00
19777;BME280;10047;42.490;26.012;2023-04-28T06:54:53;100964.88;;;11.55;100.00
19777;BME280;10047;42.490;26.012;2023-04-28T06:57:19;101011.41;;;11.68;100.00
19777;BME280;10047;42.490;26.012;2023-04-28T06:59:45;101095.47;;;11.65;100.00
19777;BME280;10047;42.490;26.012;2023-04-28T07:02:10;101085.34;;;12.16;100.00
19777;BME280;10047;42.490;26.012;2023-04-28T07:04:36;101102.34;;;12.17;100.00
19777;BME280;10047;42.490;26.012;2023-04-28T07:07:01;101091.88;;;11.79;100.00
19777;BME280;10047;42.490;26.012;2023-04-28T07:09:28;101097.28;;;12.62;100.00
19777;BME280;10047;42.490;26.012;2023-04-28T07:11:54;101147.44;;;12.12;100.00
19777;BME280;10047;42.490;26.012;2023-04-28T07:14:19;101164.88;;;12.40;100.00
19777;BME280;10047;42.490;26.012;2023-04-28T07:16:45;101194.63;;;13.35;100.00
19777;BME280;10047;42.490;26.012;2023-04-28T07:19:11;101233.47;;;12.55;100.00
19777;BME280;10047;42.490;26.012;2023-04-28T07:21:36;101218.06;;;13.55;100.00
19777;BME280;10047;42.490;26.012;2023-04-28T07:24:07;101298.31;;;12.42;100.00
19777;BME280;10047;42.490;26.012;2023-04-28T07:26:33;101383.81;;;12.68;100.00
19777;BME280;10047;42.490;26.012;2023-04-28T07:28:58;101314.56;;;12.91;100.00
19777;BME280;10047;42.490;26.012;2023-04-28T07:31:23;101335.38;;;13.20;100.00
19777;BME280;10047;42.490;26.012;2023-04-28T07:33:50;101362.47;;;13.30;100.00
19777;BME280;10047;42.490;26.012;2023-04-28T07:36:15;101368.41;;;13.29;100.00
19777;BME280;10047;42.490;26.012;2023-04-28T07:38:41;101427.28;;;12.61;100.00
19777;BME280;10047;42.490;26.012;2023-04-28T07:41:06;101418.19;;;13.04;100.00
19777;BME280;10047;42.490;26.012;2023-04-28T07:43:32;101415.53;;;13.13;100.00
19777;BME280;10047;42.490;26.012;2023-04-28T07:45:57;101408.13;;;13.48;100.00
19777;BME280;10047;42.490;26.012;2023-04-28T07:48:23;101390.78;;;14.52;100.00
19777;BME280;10047;42.490;26.012;2023-04-28T07:50:48;101434.78;;;14.28;100.00
19777;BME280;10047;42.490;26.012;2023-04-28T07:53:14;101455.91;;;14.39;100.00
19777;BME280;10047;42.490;26.012;2023-04-28T07:55:39;101480.34;;;14.94;100.00
19777;BME280;10047;42.490;26.012;2023-04-28T07:58:07;101448.88;;;14.49;100.00
19777;BME280;10047;42.490;26.012;2023-04-28T08:00:32;101561.03;;;15.14;100.00
19777;BME280;10047;42.490;26.012;2023-04-28T08:02:58;101536.81;;;15.27;100.00
19777;BME280;10047;42.490;26.012;2023-04-28T08:05:24;101579.78;;;15.56;100.00
19777;BME280;10047;42.490;26.012;2023-04-28T08:07:49;101655.81;;;15.58;100.00
19777;BME280;10047;42.490;26.012;2023-04-28T08:10:15;101640.53;;;15.11;100.00
19777;BME280;10047;42.490;26.012;2023-04-28T08:12:40;101692.94;;;15.79;100.00
19777;BME280;10047;42.490;26.012;2023-04-28T08:15:08;101776.38;;;15.08;100.00
19777;BME280;10047;42.490;26.012;2023-04-28T08:17:33;101765.41;;;15.90;100.00
19777;BME280;10047;42.490;26.012;2023-04-28T08:19:59;101746.66;;;15.45;100.00
19777;BME280;10047;42.490;26.012;2023-04-28T08:22:24;101756.16;;;16.21;100.00
19777;BME280;10047;42.490;26.012;2023-04-28T08:24:50;101764.56;;;16.28;100.00
19777;BME280;10047;42.490;26.012;2023-04-28T08:27:15;101743.69;;;15.65;100.00
19777;BME280;10047;42.490;26.012;2023-04-28T08:29:41;101760.16;;;15.53;100.00
19777;BME280;10047;42.490;26.012;2023-04-28T08:32:06;101837.69;;;15.17;100.00
19777;BME280;10047;42.490;26.012;2023-04-28T08:34:32;101745.47;;;14.11;100.00
19777;BME280;10047;42.490;26.012;2023-04-28T08:36:58;101717.25;;;15.17;100.00
19777;BME280;10047;42.490;26.012;2023-04-28T08:39:24;101620.41;;;14.92;100.00
19777;BME280;10047;42.490;26.012;2023-04-28T08:41:51;101570.50;;;16.21;100.00
19777;BME280;10047;42.490;26.012;2023-04-28T08:44:17;101413.38;;;15.10;100.00
19777;BME280;10047;42.490;26.012;2023-04-28T08:46:43;101206.47;;;13.80;100.00
19777;BME280;10047;42.490;26.012;2023-04-28T08:49:17;101158.78;;;14.84;100.00
19777;BME280;10047;42.490;26.012;2023-04-28T08:51:51;101128.88;;;14.53;100.00
19777;BME280;10047;42.490;26.012;2023-04-28T08:54:19;101089.47;;;13.91;100.00
19777;BME280;10047;42.490;26.012;2023-04-28T08:56:46;101121.28;;;14.50;100.00
19777;BME280;10047;42.490;26.012;2023-04-28T08:59:12;101050.03;;;14.35;100.00
19777;BME280;10047;42.490;26.012;2023-04-28T09:01:38;101093.91;;;14.19;100.00
19777;BME280;10047;42.490;26.012;2023-04-28T09:04:04;101029.72;;;13.59;100.00
19777;BME280;10047;42.490;26.012;2023-04-28T09:06:37;101083.03;;;14.76;100.00
19777;BME280;10047;42.490;26.012;2023-04-28T09:09:19;101090.22;;;15.24;100.00
19777;BME280;10047;42.490;26.012;2023-04-28T09:11:55;101086.00;;;15.21;100.00
19777;BME280;10047;42.490;26.012;2023-04-28T09:14:22;101060.84;;;14.45;100.00
19777;BME280;10047;42.490;26.012;2023-04-28T09:16:49;101005.88;;;14.27;100.00
19777;BME280;10047;42.490;26.012;2023-04-28T09:19:16;101019.13;;;14.09;100.00
19777;BME280;10047;42.490;26.012;2023-04-28T09:21:55;101013.47;;;13.97;100.00
19777;BME280;10047;42.490;26.012;2023-04-28T09:24:37;101066.72;;;15.37;100.00
19777;BME280;10047;42.490;26.012;2023-04-28T09:27:09;101067.09;;;15.81;100.00
19777;BME280;10047;42.490;26.012;2023-04-28T09:29:37;101070.06;;;15.41;100.00
19777;BME280;10047;42.490;26.012;2023-04-28T09:34:49;101043.19;;;13.30;100.00
19777;BME280;10047;42.490;26.012;2023-04-28T09:37:16;101073.44;;;14.52;100.00
19777;BME280;10047;42.490;26.012;2023-04-28T09:39:46;101021.31;;;14.23;100.00
19777;BME280;10047;42.490;26.012;2023-04-28T09:44:57;101049.03;;;14.41;100.00
19777;BME280;10047;42.490;26.012;2023-04-28T09:47:22;101040.84;;;15.19;100.00
19777;BME280;10047;42.490;26.012;2023-04-28T09:49:56;101073.06;;;14.66;100.00
19777;BME280;10047;42.490;26.012;2023-04-28T09:52:22;101060.72;;;14.80;100.00
19777;BME280;10047;42.490;26.012;2023-04-28T09:54:53;101078.91;;;14.71;100.00
19777;BME280;10047;42.490;26.012;2023-04-28T09:57:20;101050.38;;;15.69;100.00
19777;BME280;10047;42.490;26.012;2023-04-28T09:59:51;101075.91;;;15.74;100.00
19777;BME280;10047;42.490;26.012;2023-04-28T10:02:18;101074.41;;;15.39;100.00
19777;BME280;10047;42.490;26.012;2023-04-28T10:04:46;101049.25;;;15.22;100.00
19777;BME280;10047;42.490;26.012;2023-04-28T10:07:12;101064.16;;;15.39;100.00
19777;BME280;10047;42.490;26.012;2023-04-28T10:09:42;101061.16;;;15.25;100.00
19777;BME280;10047;42.490;26.012;2023-04-28T10:12:14;101058.75;;;16.02;100.00
19777;BME280;10047;42.490;26.012;2023-04-28T10:14:41;101062.06;;;15.22;100.00
19777;BME280;10047;42.490;26.012;2023-04-28T10:17:07;101051.50;;;15.04;100.00
19777;BME280;10047;42.490;26.012;2023-04-28T10:19:33;101075.31;;;16.42;100.00
19777;BME280;10047;42.490;26.012;2023-04-28T10:22:10;101074.97;;;16.02;100.00
19777;BME280;10047;42.490;26.012;2023-04-28T10:27:33;101076.16;;;15.92;100.00
19777;BME280;10047;42.490;26.012;2023-04-28T10:30:15;101068.53;;;16.89;100.00
19777;BME280;10047;42.490;26.012;2023-04-28T10:32:46;101061.56;;;16.93;100.00
19777;BME280;10047;42.490;26.012;2023-04-28T10:40:46;101070.34;;;16.63;100.00
19777;BME280;10047;42.490;26.012;2023-04-28T10:43:34;101069.19;;;16.71;100.00
19777;BME280;10047;42.490;26.012;2023-04-28T10:45:58;101072.94;;;16.86;100.00
19777;BME280;10047;42.490;26.012;2023-04-28T10:58:35;101038.03;;;16.80;100.00
19777;BME280;10047;42.490;26.012;2023-04-28T11:06:31;101103.81;;;16.35;100.00
19777;BME280;10047;42.490;26.012;2023-04-28T11:12:23;101142.63;;;18.12;100.00
19777;BME280;10047;42.490;26.012;2023-04-28T11:19:22;101182.53;;;16.34;100.00
19777;BME280;10047;42.490;26.012;2023-04-28T11:21:49;101152.28;;;15.64;100.00
19777;BME280;10047;42.490;26.012;2023-04-28T11:24:15;101191.59;;;15.63;100.00
19777;BME280;10047;42.490;26.012;2023-04-28T11:26:42;101162.63;;;15.30;100.00
19777;BME280;10047;42.490;26.012;2023-04-28T11:29:09;101171.03;;;15.94;100.00
19777;BME280;10047;42.490;26.012;2023-04-28T11:31:35;101233.06;;;15.77;100.00
19777;BME280;10047;42.490;26.012;2023-04-28T11:36:36;101257.81;;;16.07;100.00
19777;BME280;10047;42.490;26.012;2023-04-28T11:39:07;101206.25;;;15.87;100.00
19777;BME280;10047;42.490;26.012;2023-04-28T11:41:40;101264.84;;;16.58;100.00
19777;BME280;10047;42.490;26.012;2023-04-28T11:44:17;101227.84;;;16.89;100.00
19777;BME280;10047;42.490;26.012;2023-04-28T11:46:51;101210.50;;;16.94;100.00
19777;BME280;10047;42.490;26.012;2023-04-28T11:49:23;101267.88;;;17.19;100.00
19777;BME280;10047;42.490;26.012;2023-04-28T11:51:50;101255.56;;;16.24;100.00
19777;BME280;10047;42.490;26.012;2023-04-28T11:54:27;101211.88;;;16.80;100.00
19777;BME280;10047;42.490;26.012;2023-04-28T11:56:55;101239.25;;;16.55;100.00
19777;BME280;10047;42.490;26.012;2023-04-28T11:59:25;101175.28;;;16.21;100.00
19777;BME280;10047;42.490;26.012;2023-04-28T12:02:01;101126.28;;;17.02;100.00
19777;BME280;10047;42.490;26.012;2023-04-28T12:07:07;101112.41;;;16.34;100.00
19777;BME280;10047;42.490;26.012;2023-04-28T12:09:40;101147.34;;;16.89;100.00
19777;BME280;10047;42.490;26.012;2023-04-28T12:12:09;101156.31;;;16.25;100.00
19777;BME280;10047;42.490;26.012;2023-04-28T12:14:55;101166.00;;;16.69;100.00
19777;BME280;10047;42.490;26.012;2023-04-28T12:17:27;101141.97;;;17.41;100.00
19777;BME280;10047;42.490;26.012;2023-04-28T12:19:57;101049.19;;;17.90;100.00
19777;BME280;10047;42.490;26.012;2023-04-28T12:22:23;101062.00;;;17.92;100.00
19777;BME280;10047;42.490;26.012;2023-04-28T12:27:27;100968.63;;;17.68;100.00
19777;BME280;10047;42.490;26.012;2023-04-28T12:29:53;100861.91;;;17.77;100.00
19777;BME280;10047;42.490;26.012;2023-04-28T12:32:39;100888.88;;;17.88;100.00
19777;BME280;10047;42.490;26.012;2023-04-28T12:35:06;100865.72;;;17.28;100.00
19777;BME280;10047;42.490;26.012;2023-04-28T12:37:31;100853.50;;;17.33;100.00
19777;BME280;10047;42.490;26.012;2023-04-28T12:39:57;100825.38;;;17.89;100.00
19777;BME280;10047;42.490;26.012;2023-04-28T12:42:22;100735.19;;;17.34;100.00
19777;BME280;10047;42.490;26.012;2023-04-28T12:44:48;100673.69;;;16.91;100.00
19777;BME280;10047;42.490;26.012;2023-04-28T12:47:15;100638.13;;;16.82;100.00
19777;BME280;10047;42.490;26.012;2023-04-28T12:49:42;100693.03;;;17.39;100.00
19777;BME280;10047;42.490;26.012;2023-04-28T12:52:07;100669.25;;;17.15;100.00
19777;BME280;10047;42.490;26.012;2023-04-28T12:54:33;100654.44;;;17.59;100.00
19777;BME280;10047;42.490;26.012;2023-04-28T12:56:58;100552.03;;;18.01;100.00
19777;BME280;10047;42.490;26.012;2023-04-28T12:59:24;100451.09;;;17.96;100.00
19777;BME280;10047;42.490;26.012;2023-04-28T13:01:49;100429.38;;;18.01;100.00
19777;BME280;10047;42.490;26.012;2023-04-28T13:04:18;100347.63;;;17.22;100.00
19777;BME280;10047;42.490;26.012;2023-04-28T13:06:43;100359.84;;;17.00;100.00
19777;BME280;10047;42.490;26.012;2023-04-28T13:09:14;100401.97;;;17.15;100.00
19777;BME280;10047;42.490;26.012;2023-04-28T13:11:40;100396.31;;;16.90;100.00
19777;BME280;10047;42.490;26.012;2023-04-28T13:14:07;100354.81;;;16.63;100.00
19777;BME280;10047;42.490;26.012;2023-04-28T13:16:33;100304.09;;;17.37;100.00